Time;durP1;ratioP1;P1;durP2;ratioP2;P2;SDS_P1;SDS_P2;PMS_P1;PMS_P2;Temp;Humidity;BMP_temperature;BMP_pressure;BME280_temperature;BME280_humidity;BME280_pressure;Samples;Min_cycle;Max_cycle;Signal;HPM_P1;HPM_P2
2021/07/08 00:01:11;;;;;;;7.40;4.03;;;;;;;;;;5110053;28;20100;-72
2021/07/08 00:05:34;;;;;;;7.97;4.50;;;;;;;;;;5110162;27;20405;-73
2021/07/08 00:08:00;;;;;;;7.80;4.82;;;;;;;;;;5109014;28;20081;-71
2021/07/08 00:10:33;;;;;;;9.63;4.55;;;;;;;;;;5109874;28;20549;-72
2021/07/08 00:12:59;;;;;;;;;;;;;;;;;;5110654;28;20028;-71
2021/07/08 00:15:28;;;;;;;5.65;3.30;;;;;;;;;;5110225;28;19911;-70
2021/07/08 00:17:54;;;;;;;6.72;3.53;;;;;;;;;;5108681;28;20058;-72
2021/07/08 00:20:21;;;;;;;7.15;3.97;;;;;;;;;;5108885;28;20488;-72
2021/07/08 00:22:47;;;;;;;7.85;3.72;;;;;;;;;;5110171;28;20024;-71
2021/07/08 00:25:15;;;;;;;9.30;4.68;;;;;;;;;;5108528;28;20088;-73
2021/07/08 00:27:42;;;;;;;7.60;4.72;;;;;;;;;;5108670;28;20027;-71
2021/07/08 00:30:09;;;;;;;7.30;4.47;;;;;;;;;;5108335;28;20369;-71
2021/07/08 00:36:09;;;;;;;6.28;4.05;;;;;;;;;;5110476;27;20408;-70
2021/07/08 00:38:35;;;;;;;8.35;4.20;;;;;;;;;;5110053;28;20032;-70
2021/07/08 00:41:02;;;;;;;9.23;4.10;;;;;;;;;;5110495;28;20020;-70
2021/07/08 00:43:30;;;;;;;6.32;3.83;;;;;;;;;;5110239;28;20043;-71
2021/07/08 00:45:56;;;;;;;6.60;4.22;;;;;;;;;;5109762;28;20031;-71
2021/07/08 00:48:22;;;;;;;5.38;3.90;;;;;;;;;;5110050;28;20028;-72
2021/07/08 00:50:49;;;;;;;6.57;3.80;;;;;;;;;;5110188;28;20035;-71
2021/07/08 00:53:16;;;;;;;6.60;3.75;;;;;;;;;;5125401;28;20020;-71
2021/07/08 00:55:42;;;;;;;6.03;3.42;;;;;;;;;;5110122;28;20041;-71
2021/07/08 01:00:13;;;;;;;6.25;4.32;;;;;;;;;;5109979;27;20873;-70
2021/07/08 01:02:40;;;;;;;8.15;4.00;;;;;;;;;;5110279;28;20028;-70
2021/07/08 01:05:06;;;;;;;6.88;3.83;;;;;;;;;;5110105;28;20032;-71
2021/07/08 01:07:33;;;;;;;7.43;3.97;;;;;;;;;;5110073;28;20023;-70
2021/07/08 01:09:59;;;;;;;6.43;3.65;;;;;;;;;;5110181;28;20131;-70
2021/07/08 01:12:25;;;;;;;5.63;3.45;;;;;;;;;;5110160;28;20388;-72
2021/07/08 01:14:51;;;;;;;6.75;4.03;;;;;;;;;;5109736;28;20060;-71
2021/07/08 01:17:17;;;;;;;6.75;3.95;;;;;;;;;;5110149;28;20016;-71
2021/07/08 01:19:45;;;;;;;6.70;3.55;;;;;;;;;;5109845;28;20028;-70
2021/07/08 01:22:11;;;;;;;6.00;3.83;;;;;;;;;;5109586;28;20119;-71
2021/07/08 01:24:38;;;;;;;6.30;3.83;;;;;;;;;;5108532;28;20457;-71
2021/07/08 01:27:04;;;;;;;6.93;3.78;;;;;;;;;;5109933;28;20100;-71
2021/07/08 01:29:31;;;;;;;7.35;4.35;;;;;;;;;;5108115;28;20491;-71
2021/07/08 01:31:57;;;;;;;7.25;4.43;;;;;;;;;;5109772;28;20020;-71
2021/07/08 01:35:41;;;;;;;6.70;3.70;;;;;;;;;;5089682;27;1840706;-70
2021/07/08 01:38:07;;;;;;;8.45;4.38;;;;;;;;;;5130899;28;20032;-71
2021/07/08 01:40:33;;;;;;;9.00;4.28;;;;;;;;;;5130590;28;20022;-70
2021/07/08 01:43:00;;;;;;;5.60;3.63;;;;;;;;;;5130318;28;20130;-70
2021/07/08 01:45:26;;;;;;;6.97;4.72;;;;;;;;;;5130622;28;20046;-71
2021/07/08 01:47:52;;;;;;;8.23;4.40;;;;;;;;;;5130578;28;20019;-72
2021/07/08 01:50:55;;;;;;;6.38;3.45;;;;;;;;;;5110268;27;20392;-70
2021/07/08 01:53:21;;;;;;;6.38;4.25;;;;;;;;;;5110384;28;20031;-70
2021/07/08 01:55:47;;;;;;;5.82;3.75;;;;;;;;;;5108731;28;20501;-70
2021/07/08 01:58:13;;;;;;;6.35;3.65;;;;;;;;;;5110331;28;20019;-70
2021/07/08 02:01:58;;;;;;;8.13;4.82;;;;;;;;;;5110305;27;20400;-72
2021/07/08 02:04:24;;;;;;;8.68;5.53;;;;;;;;;;5108532;28;20028;-70
2021/07/08 02:11:08;;;;;;;15.43;4.78;;;;;;;;;;5110012;27;20493;-70
2021/07/08 02:13:35;;;;;;;10.57;5.28;;;;;;;;;;5110351;28;20398;-70
2021/07/08 02:16:08;;;;;;;8.70;5.30;;;;;;;;;;5110595;28;20091;-70
2021/07/08 02:18:35;;;;;;;8.68;5.10;;;;;;;;;;5108538;28;20026;-71
2021/07/08 02:21:02;;;;;;;7.20;4.65;;;;;;;;;;5110270;28;20016;-71
2021/07/08 02:23:28;;;;;;;8.40;4.63;;;;;;;;;;5110089;28;20099;-71
2021/07/08 02:25:54;;;;;;;5.97;3.88;;;;;;;;;;5109753;28;20045;-71
2021/07/08 02:28:20;;;;;;;8.00;4.90;;;;;;;;;;5108569;28;20028;-71
2021/07/08 02:31:32;;;;;;;9.82;4.70;;;;;;;;;;5109911;27;20878;-71
2021/07/08 02:33:58;;;;;;;8.55;4.43;;;;;;;;;;5110291;28;20106;-71
2021/07/08 02:36:24;;;;;;;7.55;4.70;;;;;;;;;;5110472;28;20055;-70
2021/07/08 02:38:50;;;;;;;8.43;5.47;;;;;;;;;;5110026;28;20020;-71
2021/07/08 02:41:17;;;;;;;8.70;5.70;;;;;;;;;;5108846;28;20016;-71
2021/07/08 02:43:43;;;;;;;7.50;4.80;;;;;;;;;;5108870;28;20023;-71
2021/07/08 02:48:07;;;;;;;9.93;5.10;;;;;;;;;;5110111;27;20409;-70
2021/07/08 02:50:33;;;;;;;8.73;4.43;;;;;;;;;;5110257;28;20487;-71
2021/07/08 02:53:00;;;;;;;11.23;4.90;;;;;;;;;;5109883;28;20085;-72
2021/07/08 02:55:26;;;;;;;6.75;3.92;;;;;;;;;;5110387;28;20024;-71
2021/07/08 02:57:53;;;;;;;12.70;5.30;;;;;;;;;;5110202;28;20028;-71
2021/07/08 03:00:24;;;;;;;7.80;4.90;;;;;;;;;;5109798;28;20115;-71
2021/07/08 03:02:51;;;;;;;7.60;5.38;;;;;;;;;;5125957;28;20028;-71
2021/07/08 03:05:17;;;;;;;7.30;4.90;;;;;;;;;;5125905;28;20024;-71
2021/07/08 03:07:44;;;;;;;7.47;4.93;;;;;;;;;;5109519;28;20574;-71
2021/07/08 03:10:11;;;;;;;7.82;4.65;;;;;;;;;;5110241;28;20467;-72
2021/07/08 03:13:42;;;;;;;8.02;3.85;;;;;;;;;;5109927;27;20504;-70
2021/07/08 03:17:11;;;;;;;15.82;5.07;;;;;;;;;;5131038;27;20315;-73
2021/07/08 03:19:38;;;;;;;7.40;4.70;;;;;;;;;;5110336;28;20077;-70
2021/07/08 03:22:04;;;;;;;9.40;5.45;;;;;;;;;;5109867;28;20024;-70
2021/07/08 03:24:57;;;;;;;7.65;5.03;;;;;;;;;;5110317;27;20768;-70
2021/07/08 03:27:23;;;;;;;9.93;6.55;;;;;;;;;;5125684;28;20503;-70
2021/07/08 03:29:49;;;;;;;11.10;6.95;;;;;;;;;;5110442;28;20099;-70
2021/07/08 03:33:07;;;;;;;8.07;5.00;;;;;;;;;;5110361;27;20920;-70
2021/07/08 03:35:34;;;;;;;8.18;4.85;;;;;;;;;;5109966;28;20120;-70
2021/07/08 03:38:00;;;;;;;10.50;5.85;;;;;;;;;;5110487;28;20069;-70
2021/07/08 03:40:28;;;;;;;12.52;4.97;;;;;;;;;;5125942;28;20473;-69
2021/07/08 03:42:55;;;;;;;7.72;5.07;;;;;;;;;;5109802;28;20089;-70
2021/07/08 03:45:23;;;;;;;7.53;5.28;;;;;;;;;;5110706;28;20100;-70
2021/07/08 03:47:49;;;;;;;10.82;5.40;;;;;;;;;;5110165;28;20031;-70
2021/07/08 03:50:16;;;;;;;11.13;5.05;;;;;;;;;;5109661;28;20405;-70
2021/07/08 03:52:42;;;;;;;12.65;5.97;;;;;;;;;;5109878;28;20506;-70
2021/07/08 03:55:13;;;;;;;16.70;5.45;;;;;;;;;;5109601;28;20031;-70
2021/07/08 03:57:55;;;;;;;12.10;6.07;;;;;;;;;;5125824;28;20024;-70
2021/07/08 04:00:21;;;;;;;9.50;5.75;;;;;;;;;;5109977;28;20012;-71
2021/07/08 04:04:38;;;;;;;19.58;5.85;;;;;;;;;;5110296;27;20509;-70
2021/07/08 04:08:26;;;;;;;9.90;5.78;;;;;;;;;;5110350;27;20393;-70
2021/07/08 04:10:52;;;;;;;6.80;4.38;;;;;;;;;;5110296;28;20024;-71
2021/07/08 04:14:44;;;;;;;7.40;4.80;;;;;;;;;;5110391;27;20513;-73
2021/07/08 04:17:10;;;;;;;8.52;4.57;;;;;;;;;;5110083;28;20019;-73
2021/07/08 04:19:36;;;;;;;7.70;4.55;;;;;;;;;;5109138;28;20048;-73
2021/07/08 04:22:03;;;;;;;9.27;4.40;;;;;;;;;;5110279;28;20028;-74
2021/07/08 04:24:29;;;;;;;8.32;4.38;;;;;;;;;;5109765;28;20027;-73
2021/07/08 04:27:26;;;;;;;9.35;5.50;;;;;;;;;;5110355;27;20435;-73
2021/07/08 04:29:53;;;;;;;7.90;4.93;;;;;;;;;;5109048;28;20119;-73
2021/07/08 04:32:19;;;;;;;7.65;4.82;;;;;;;;;;5110025;28;20028;-74
2021/07/08 04:34:46;;;;;;;7.18;4.95;;;;;;;;;;5109097;28;20107;-74
2021/07/08 04:37:12;;;;;;;10.52;5.72;;;;;;;;;;5110031;28;20026;-73
2021/07/08 04:39:38;;;;;;;10.73;7.40;;;;;;;;;;5110598;28;20387;-72
2021/07/08 04:42:39;;;;;;;9.30;5.30;;;;;;;;;;5069871;28;21055;-74
2021/07/08 04:45:06;;;;;;;7.78;4.85;;;;;;;;;;5068191;28;20056;-72
2021/07/08 04:51:20;;;;;;;8.85;5.82;;;;;;;;;;5110146;27;20393;-74
2021/07/08 04:53:47;;;;;;;6.22;4.00;;;;;;;;;;5110321;28;20020;-74
2021/07/08 04:56:13;;;;;;;8.57;4.65;;;;;;;;;;5109234;28;20088;-73
2021/07/08 05:00:21;;;;;;;6.63;4.18;;;;;;;;;;5110057;27;20521;-68
2021/07/08 05:02:48;;;;;;;9.35;4.55;;;;;;;;;;5110188;28;20081;-67
2021/07/08 05:05:15;;;;;;;8.07;5.05;;;;;;;;;;5110262;28;20020;-69
2021/07/08 05:07:41;;;;;;;6.47;4.53;;;;;;;;;;5109911;28;20032;-69
2021/07/08 05:10:09;;;;;;;6.70;4.25;;;;;;;;;;5110325;28;20023;-68
2021/07/08 05:13:52;;;;;;;7.10;4.75;;;;;;;;;;5109919;27;20397;-67
2021/07/08 05:16:18;;;;;;;9.30;5.50;;;;;;;;;;5110930;28;20023;-67
2021/07/08 05:18:44;;;;;;;10.30;5.03;;;;;;;;;;5110144;28;20038;-67
2021/07/08 05:21:10;;;;;;;10.57;5.20;;;;;;;;;;5109618;28;20024;-68
2021/07/08 05:23:38;;;;;;;9.00;5.50;;;;;;;;;;5109897;28;20492;-69
2021/07/08 05:26:05;;;;;;;19.65;8.60;;;;;;;;;;5108713;28;20057;-70
2021/07/08 05:28:32;;;;;;;16.50;6.65;;;;;;;;;;5109469;28;20024;-71
2021/07/08 05:30:58;;;;;;;7.38;5.18;;;;;;;;;;5110007;28;20095;-70
2021/07/08 05:33:24;;;;;;;8.63;5.07;;;;;;;;;;5109897;28;20031;-69
2021/07/08 05:35:51;;;;;;;8.23;4.47;;;;;;;;;;5109570;28;20020;-71
2021/07/08 05:39:38;;;;;;;9.80;4.88;;;;;;;;;;5108968;27;20396;-70
2021/07/08 05:42:05;;;;;;;7.70;4.82;;;;;;;;;;5108549;28;20020;-70
2021/07/08 05:44:32;;;;;;;11.68;5.35;;;;;;;;;;5108876;28;20049;-70
2021/07/08 05:46:58;;;;;;;6.90;4.75;;;;;;;;;;5109627;28;20008;-71
2021/07/08 05:49:24;;;;;;;17.02;5.88;;;;;;;;;;5107156;28;20110;-72
2021/07/08 05:51:50;;;;;;;6.18;4.13;;;;;;;;;;5108226;28;20042;-72
2021/07/08 05:54:17;;;;;;;9.57;5.35;;;;;;;;;;5109142;28;20024;-71
2021/07/08 05:56:43;;;;;;;7.22;3.95;;;;;;;;;;5109631;28;20096;-72
2021/07/08 05:59:43;;;;;;;10.27;4.70;;;;;;;;;;5110442;27;20389;-70
2021/07/08 06:02:09;;;;;;;8.35;4.82;;;;;;;;;;5109730;28;20420;-71
2021/07/08 06:04:35;;;;;;;11.18;5.40;;;;;;;;;;5109856;28;20047;-71
2021/07/08 06:07:01;;;;;;;10.95;5.50;;;;;;;;;;5107521;28;20533;-70
2021/07/08 06:09:27;;;;;;;9.45;5.05;;;;;;;;;;5109527;28;20502;-71
2021/07/08 06:11:54;;;;;;;10.15;5.20;;;;;;;;;;5109991;28;20479;-71
2021/07/08 06:14:20;;;;;;;9.52;5.18;;;;;;;;;;5110072;28;20055;-71
2021/07/08 06:16:46;;;;;;;10.63;6.10;;;;;;;;;;5109796;28;20046;-71
2021/07/08 06:19:12;;;;;;;8.90;5.07;;;;;;;;;;5108853;28;20391;-71
2021/07/08 06:21:38;;;;;;;12.35;5.10;;;;;;;;;;5109760;28;20024;-71
2021/07/08 06:24:07;;;;;;;9.35;5.28;;;;;;;;;;5109523;28;20063;-71
2021/07/08 06:26:33;;;;;;;12.68;5.47;;;;;;;;;;5109850;28;20021;-70
2021/07/08 06:29:00;;;;;;;13.75;6.05;;;;;;;;;;5109661;28;20024;-70
2021/07/08 06:31:26;;;;;;;7.93;5.43;;;;;;;;;;5108997;28;20023;-69
2021/07/08 06:33:52;;;;;;;8.43;5.82;;;;;;;;;;5109666;28;20040;-68
2021/07/08 06:36:18;;;;;;;8.73;5.10;;;;;;;;;;5104902;28;20058;-68
2021/07/08 06:38:44;;;;;;;11.00;6.05;;;;;;;;;;5122900;28;20487;-68
2021/07/08 06:41:11;;;;;;;7.93;5.50;;;;;;;;;;5129817;28;20494;-68
2021/07/08 06:43:37;;;;;;;7.57;4.90;;;;;;;;;;5129839;28;20110;-67
2021/07/08 06:46:03;;;;;;;8.02;5.20;;;;;;;;;;5129286;28;20069;-67
2021/07/08 06:48:29;;;;;;;8.43;5.28;;;;;;;;;;5123576;28;20068;-68
2021/07/08 06:50:56;;;;;;;10.00;6.15;;;;;;;;;;5128862;28;20094;-69
2021/07/08 06:53:22;;;;;;;8.45;5.25;;;;;;;;;;5126681;28;20024;-68
2021/07/08 06:55:48;;;;;;;8.50;5.47;;;;;;;;;;5127673;28;20081;-68
2021/07/08 06:58:14;;;;;;;7.95;5.40;;;;;;;;;;5129200;28;20047;-67
2021/07/08 07:00:42;;;;;;;13.48;5.53;;;;;;;;;;5129385;28;20030;-68
2021/07/08 07:03:08;;;;;;;8.48;5.43;;;;;;;;;;5129409;28;20089;-68
2021/07/08 07:05:35;;;;;;;10.82;5.10;;;;;;;;;;5128887;28;20379;-68
2021/07/08 07:08:01;;;;;;;10.60;5.50;;;;;;;;;;5129285;28;20057;-69
2021/07/08 07:10:28;;;;;;;12.10;6.13;;;;;;;;;;5098397;28;20027;-68
2021/07/08 07:12:55;;;;;;;7.47;4.93;;;;;;;;;;5094828;28;20032;-68
2021/07/08 07:15:23;;;;;;;8.75;5.72;;;;;;;;;;5094770;28;20012;-67
2021/07/08 07:17:50;;;;;;;7.78;5.32;;;;;;;;;;5093928;28;20480;-67
2021/07/08 07:20:17;;;;;;;9.25;5.15;;;;;;;;;;5094236;28;20094;-67
2021/07/08 07:22:47;;;;;;;8.15;5.85;;;;;;;;;;5093240;28;20509;-67
2021/07/08 07:25:15;;;;;;;8.05;5.28;;;;;;;;;;5093653;28;20036;-68
2021/07/08 07:27:41;;;;;;;8.90;5.38;;;;;;;;;;5094686;28;20107;-68
2021/07/08 07:30:08;;;;;;;7.63;5.53;;;;;;;;;;5094761;28;20496;-67
2021/07/08 07:32:34;;;;;;;10.40;5.63;;;;;;;;;;5094429;28;20472;-67
2021/07/08 07:35:01;;;;;;;8.43;4.47;;;;;;;;;;5094284;28;20028;-67
2021/07/08 07:37:28;;;;;;;7.63;5.40;;;;;;;;;;5094763;28;20016;-68
2021/07/08 07:39:54;;;;;;;8.52;5.10;;;;;;;;;;5094691;28;20024;-67
2021/07/08 07:42:20;;;;;;;9.55;6.15;;;;;;;;;;5092704;28;20016;-68
2021/07/08 07:44:48;;;;;;;7.75;4.88;;;;;;;;;;5094430;28;20035;-68
2021/07/08 07:47:17;;;;;;;7.22;5.10;;;;;;;;;;5094176;28;20349;-68
2021/07/08 07:49:43;;;;;;;8.63;4.90;;;;;;;;;;5093148;28;20036;-67
2021/07/08 07:52:13;;;;;;;9.90;5.60;;;;;;;;;;5093871;28;20020;-67
2021/07/08 07:54:40;;;;;;;6.78;4.25;;;;;;;;;;5093994;28;20032;-67
2021/07/08 07:57:08;;;;;;;9.13;4.18;;;;;;;;;;5094652;28;20372;-67
2021/07/08 07:59:34;;;;;;;7.97;4.32;;;;;;;;;;5093977;28;20048;-67
2021/07/08 08:02:02;;;;;;;5.50;3.53;;;;;;;;;;5092351;28;20081;-67
2021/07/08 08:04:32;;;;;;;8.52;4.47;;;;;;;;;;5094003;28;20023;-68
2021/07/08 08:09:43;;;;;;;7.40;4.72;;;;;;;;;;5093470;28;20093;-68
2021/07/08 08:12:10;;;;;;;9.02;4.40;;;;;;;;;;5092406;28;20027;-67
2021/07/08 08:14:36;;;;;;;7.63;4.28;;;;;;;;;;5094179;28;20016;-69
2021/07/08 08:17:03;;;;;;;8.98;4.13;;;;;;;;;;5093099;28;20020;-68
2021/07/08 08:19:29;;;;;;;8.20;4.78;;;;;;;;;;5093027;28;20484;-68
2021/07/08 08:21:55;;;;;;;6.20;4.28;;;;;;;;;;5091736;28;20063;-68
2021/07/08 08:24:22;;;;;;;7.47;4.30;;;;;;;;;;5092439;28;20085;-68
2021/07/08 08:26:51;;;;;;;7.75;4.85;;;;;;;;;;5091927;28;20059;-69
2021/07/08 08:29:18;;;;;;;6.20;3.45;;;;;;;;;;5093696;28;20082;-68
2021/07/08 08:31:44;;;;;;;5.93;3.70;;;;;;;;;;5093289;28;20047;-68
2021/07/08 08:34:10;;;;;;;7.13;4.50;;;;;;;;;;5092310;28;20111;-68
2021/07/08 08:36:37;;;;;;;5.95;3.83;;;;;;;;;;5093207;28;20069;-68
2021/07/08 08:39:03;;;;;;;6.05;3.85;;;;;;;;;;5091638;28;20036;-68
2021/07/08 08:41:33;;;;;;;8.00;3.30;;;;;;;;;;5090988;28;20099;-69
2021/07/08 08:43:59;;;;;;;11.13;3.90;;;;;;;;;;5091460;28;20071;-66
2021/07/08 08:46:25;;;;;;;7.20;3.85;;;;;;;;;;5091883;28;20479;-68
2021/07/08 08:48:51;;;;;;;6.47;3.78;;;;;;;;;;5091833;28;20026;-66
2021/07/08 08:51:18;;;;;;;9.63;3.50;;;;;;;;;;5092090;28;20068;-69
2021/07/08 08:53:44;;;;;;;6.28;3.45;;;;;;;;;;5093256;28;20427;-68
2021/07/08 08:56:10;;;;;;;6.88;4.10;;;;;;;;;;5092041;28;20024;-67
2021/07/08 08:58:37;;;;;;;7.30;4.25;;;;;;;;;;5091232;28;20458;-67
2021/07/08 09:01:07;;;;;;;7.25;3.90;;;;;;;;;;5093035;28;20027;-68
2021/07/08 09:03:37;;;;;;;7.63;3.85;;;;;;;;;;5109960;28;20379;-67
2021/07/08 09:06:06;;;;;;;6.68;4.22;;;;;;;;;;5100928;28;20024;-67
2021/07/08 09:08:33;;;;;;;6.43;3.45;;;;;;;;;;5093061;28;20487;-67
2021/07/08 09:11:05;;;;;;;6.47;3.60;;;;;;;;;;5092738;28;20536;-67
2021/07/08 09:13:44;;;;;;;116.30;105.88;;;;;;;;;;5092394;28;20049;-68
2021/07/08 09:16:12;;;;;;;6.68;3.47;;;;;;;;;;5093077;28;20431;-68
2021/07/08 09:18:39;;;;;;;4.82;3.30;;;;;;;;;;5092571;28;20032;-68
2021/07/08 09:21:16;;;;;;;5.68;3.70;;;;;;;;;;5089695;28;20024;-68
2021/07/08 09:24:01;;;;;;;6.65;3.97;;;;;;;;;;5091603;28;20518;-67
2021/07/08 09:26:27;;;;;;;5.82;3.63;;;;;;;;;;5091417;28;20146;-67
2021/07/08 09:29:10;;;;;;;5.63;3.40;;;;;;;;;;5092590;28;20035;-67
2021/07/08 09:31:37;;;;;;;6.55;4.35;;;;;;;;;;5092674;28;20028;-67
2021/07/08 09:34:14;;;;;;;7.25;3.55;;;;;;;;;;5092227;28;20031;-67
2021/07/08 09:36:40;;;;;;;7.18;4.05;;;;;;;;;;5091331;28;20027;-68
2021/07/08 09:39:07;;;;;;;6.35;3.70;;;;;;;;;;5092776;28;20336;-67
2021/07/08 09:41:33;;;;;;;6.13;3.90;;;;;;;;;;5092047;28;20103;-67
2021/07/08 09:43:59;;;;;;;5.90;3.65;;;;;;;;;;5092530;28;20499;-67
2021/07/08 09:46:36;;;;;;;6.90;3.67;;;;;;;;;;5091153;28;20460;-68
2021/07/08 09:49:04;;;;;;;6.85;3.83;;;;;;;;;;5092036;28;20099;-68
2021/07/08 09:51:31;;;;;;;5.97;3.65;;;;;;;;;;5091142;28;20043;-67
2021/07/08 09:54:09;;;;;;;5.28;3.60;;;;;;;;;;5090836;28;20109;-69
2021/07/08 09:56:48;;;;;;;6.75;4.07;;;;;;;;;;5092179;28;20020;-67
2021/07/08 09:59:15;;;;;;;4.97;3.38;;;;;;;;;;5090712;28;20125;-67
2021/07/08 10:01:43;;;;;;;5.25;3.63;;;;;;;;;;5090417;28;20110;-67
2021/07/08 10:04:09;;;;;;;6.95;4.00;;;;;;;;;;5090884;28;20031;-67
2021/07/08 10:06:36;;;;;;;6.40;3.70;;;;;;;;;;5092307;28;20490;-67
2021/07/08 10:09:03;;;;;;;7.80;3.58;;;;;;;;;;5091849;28;20228;-67
2021/07/08 10:11:30;;;;;;;5.10;3.10;;;;;;;;;;5092152;28;20047;-67
2021/07/08 10:13:59;;;;;;;6.72;3.67;;;;;;;;;;5090944;28;20020;-68
2021/07/08 10:16:26;;;;;;;4.68;3.00;;;;;;;;;;5091848;28;20034;-68
2021/07/08 10:18:55;;;;;;;8.23;3.75;;;;;;;;;;5091327;28;20041;-68
2021/07/08 10:21:21;;;;;;;6.72;4.10;;;;;;;;;;5089137;28;20024;-67
2021/07/08 10:23:48;;;;;;;6.35;3.55;;;;;;;;;;5090006;28;20032;-67
2021/07/08 10:26:14;;;;;;;6.68;3.40;;;;;;;;;;5090754;28;20025;-67
2021/07/08 10:28:46;;;;;;;5.20;3.65;;;;;;;;;;5092070;28;20024;-67
2021/07/08 10:31:16;;;;;;;6.30;3.42;;;;;;;;;;5090442;28;20042;-67
2021/07/08 10:34:02;;;;;;;5.60;3.40;;;;;;;;;;5090175;28;20369;-68
2021/07/08 10:36:31;;;;;;;6.95;4.07;;;;;;;;;;5090803;28;20031;-67
2021/07/08 10:39:27;;;;;;;5.28;3.35;;;;;;;;;;5091776;28;20067;-68
2021/07/08 10:41:54;;;;;;;6.40;3.60;;;;;;;;;;5079112;28;20047;-68
2021/07/08 10:44:53;;;;;;;5.25;3.33;;;;;;;;;;5094686;28;20115;-69
2021/07/08 10:47:34;;;;;;;5.47;3.42;;;;;;;;;;5061972;28;20036;-69
2021/07/08 10:50:02;;;;;;;6.60;3.15;;;;;;;;;;5095769;28;20469;-70
2021/07/08 10:52:42;;;;;;;6.13;3.65;;;;;;;;;;5095378;28;20475;-69
2021/07/08 10:55:09;;;;;;;5.57;3.28;;;;;;;;;;5095609;28;20020;-69
2021/07/08 10:57:37;;;;;;;4.95;3.28;;;;;;;;;;5094968;28;20036;-69
2021/07/08 11:00:05;;;;;;;5.40;3.20;;;;;;;;;;5095748;28;20028;-69
2021/07/08 11:02:46;;;;;;;5.22;3.20;;;;;;;;;;5095658;28;20043;-69
2021/07/08 11:05:12;;;;;;;5.30;3.50;;;;;;;;;;5095039;28;20016;-68
2021/07/08 11:07:46;;;;;;;5.15;3.28;;;;;;;;;;5094170;28;20031;-68
2021/07/08 11:10:12;;;;;;;4.50;3.30;;;;;;;;;;5095427;28;20020;-69
2021/07/08 11:12:43;;;;;;;5.95;3.63;;;;;;;;;;5095135;28;20513;-68
2021/07/08 11:15:09;;;;;;;4.10;2.63;;;;;;;;;;5095365;28;20059;-69
2021/07/08 11:17:42;;;;;;;5.18;3.40;;;;;;;;;;5095368;28;20125;-68
2021/07/08 11:20:27;;;;;;;4.80;3.20;;;;;;;;;;5094900;28;20074;-69
2021/07/08 11:22:53;;;;;;;4.90;3.08;;;;;;;;;;5095565;28;20052;-68
2021/07/08 11:25:19;;;;;;;5.00;3.15;;;;;;;;;;5094841;28;20094;-68
2021/07/08 11:27:46;;;;;;;4.80;3.10;;;;;;;;;;5094788;28;20070;-68
2021/07/08 11:30:12;;;;;;;5.80;3.17;;;;;;;;;;5095057;28;20020;-67
2021/07/08 11:32:43;;;;;;;5.50;3.45;;;;;;;;;;5093296;28;20576;-68
2021/07/08 11:35:20;;;;;;;8.50;3.70;;;;;;;;;;5094173;28;20043;-69
2021/07/08 11:37:54;;;;;;;4.65;2.95;;;;;;;;;;5094730;28;20032;-69
2021/07/08 11:40:21;;;;;;;9.85;3.15;;;;;;;;;;5093115;28;20110;-71
2021/07/08 11:42:48;;;;;;;5.70;3.28;;;;;;;;;;5094020;28;20027;-69
2021/07/08 11:45:26;;;;;;;5.57;3.20;;;;;;;;;;5093233;28;20028;-69
2021/07/08 11:47:53;;;;;;;5.13;2.85;;;;;;;;;;5094352;28;20024;-69
2021/07/08 11:50:21;;;;;;;5.72;3.15;;;;;;;;;;5093332;28;20430;-69
2021/07/08 11:52:48;;;;;;;4.63;2.70;;;;;;;;;;5094601;28;20507;-69
2021/07/08 11:55:14;;;;;;;5.03;2.72;;;;;;;;;;5092972;28;20024;-69
2021/07/08 11:57:51;;;;;;;5.13;3.00;;;;;;;;;;5094432;28;20052;-68
2021/07/08 12:00:49;;;;;;;5.35;2.72;;;;;;;;;;5094534;28;20028;-69
2021/07/08 12:03:26;;;;;;;5.50;3.25;;;;;;;;;;5060624;28;20553;-69
2021/07/08 12:05:59;;;;;;;4.32;2.78;;;;;;;;;;5094497;28;20031;-70
2021/07/08 12:08:28;;;;;;;5.47;3.03;;;;;;;;;;5093573;28;20020;-69
2021/07/08 12:10:56;;;;;;;4.22;2.80;;;;;;;;;;5092217;28;20049;-69
2021/07/08 12:13:22;;;;;;;5.93;3.45;;;;;;;;;;5092659;28;20028;-67
2021/07/08 12:15:48;;;;;;;4.00;2.45;;;;;;;;;;5092245;28;20024;-69
2021/07/08 12:18:15;;;;;;;4.95;3.00;;;;;;;;;;5091224;28;20028;-69
2021/07/08 12:20:48;;;;;;;4.88;3.00;;;;;;;;;;5092673;28;20149;-71
2021/07/08 12:23:15;;;;;;;3.70;2.60;;;;;;;;;;5092025;28;20028;-68
2021/07/08 12:25:41;;;;;;;4.00;2.72;;;;;;;;;;5093969;28;20020;-67
2021/07/08 12:28:08;;;;;;;4.03;2.83;;;;;;;;;;5092747;28;20028;-67
2021/07/08 12:30:34;;;;;;;4.22;2.83;;;;;;;;;;5093647;28;20476;-67
2021/07/08 12:33:04;;;;;;;4.53;2.60;;;;;;;;;;5094037;28;20098;-68
2021/07/08 12:35:39;;;;;;;3.45;2.42;;;;;;;;;;5093913;28;20028;-68
2021/07/08 12:38:05;;;;;;;5.00;2.65;;;;;;;;;;5094101;28;20473;-70
2021/07/08 12:40:31;;;;;;;4.40;2.47;;;;;;;;;;5093957;28;20032;-67
2021/07/08 12:43:05;;;;;;;6.35;2.72;;;;;;;;;;5093487;28;20044;-68
2021/07/08 12:45:31;;;;;;;5.82;3.03;;;;;;;;;;5093657;28;20024;-68
2021/07/08 12:47:58;;;;;;;5.03;2.30;;;;;;;;;;5093714;28;20541;-68
2021/07/08 12:50:25;;;;;;;5.47;2.50;;;;;;;;;;5093197;28;20059;-69
2021/07/08 12:52:52;;;;;;;4.40;2.60;;;;;;;;;;5092295;28;20430;-67
2021/07/08 12:55:33;;;;;;;4.68;2.65;;;;;;;;;;5093598;28;20024;-68
2021/07/08 12:58:04;;;;;;;3.35;2.45;;;;;;;;;;5093141;28;20044;-68
2021/07/08 13:00:31;;;;;;;4.25;2.42;;;;;;;;;;5092329;28;20043;-68
2021/07/08 13:02:57;;;;;;;5.63;2.85;;;;;;;;;;5092222;28;20017;-68
2021/07/08 13:05:33;;;;;;;4.70;3.00;;;;;;;;;;5093018;28;20031;-68
2021/07/08 13:07:59;;;;;;;6.00;2.90;;;;;;;;;;5092921;28;20030;-68
2021/07/08 13:10:33;;;;;;;4.28;2.70;;;;;;;;;;5093083;28;20024;-68
2021/07/08 13:12:59;;;;;;;3.63;2.30;;;;;;;;;;5092974;28;20387;-67
2021/07/08 13:15:26;;;;;;;4.65;2.63;;;;;;;;;;5092838;28;20100;-68
2021/07/08 13:18:09;;;;;;;3.83;2.35;;;;;;;;;;5092895;28;20059;-68
2021/07/08 13:20:36;;;;;;;4.07;2.55;;;;;;;;;;5093202;28;20085;-68
2021/07/08 13:23:12;;;;;;;4.72;2.80;;;;;;;;;;5093215;28;20056;-68
2021/07/08 13:25:39;;;;;;;3.28;2.33;;;;;;;;;;5092660;28;20051;-69
2021/07/08 13:28:17;;;;;;;3.85;2.33;;;;;;;;;;5093122;28;20099;-69
2021/07/08 13:30:45;;;;;;;2.47;1.92;;;;;;;;;;5093047;28;20028;-68
2021/07/08 13:33:12;;;;;;;4.07;2.33;;;;;;;;;;5092569;28;20047;-69
2021/07/08 13:35:48;;;;;;;5.50;2.65;;;;;;;;;;5092857;28;20027;-68
2021/07/08 13:38:24;;;;;;;3.88;2.30;;;;;;;;;;5091766;28;20120;-68
2021/07/08 13:41:09;;;;;;;3.47;1.80;;;;;;;;;;5090970;28;20024;-68
2021/07/08 13:43:37;;;;;;;3.00;2.20;;;;;;;;;;5091595;28;20036;-69
2021/07/08 13:46:17;;;;;;;5.57;2.92;;;;;;;;;;5092319;28;20058;-68
2021/07/08 13:48:45;;;;;;;4.63;2.20;;;;;;;;;;5091677;28;20357;-67
2021/07/08 13:51:11;;;;;;;4.38;2.80;;;;;;;;;;5091696;28;20039;-68
2021/07/08 13:53:38;;;;;;;3.58;2.78;;;;;;;;;;5090966;28;20016;-68
2021/07/08 13:56:06;;;;;;;5.40;3.42;;;;;;;;;;5092684;28;20488;-68
2021/07/08 13:58:32;;;;;;;4.75;2.92;;;;;;;;;;5092137;28;20124;-68
2021/07/08 14:00:58;;;;;;;7.35;3.25;;;;;;;;;;5092102;28;20068;-68
2021/07/08 14:03:24;;;;;;;4.88;2.75;;;;;;;;;;5092552;28;20032;-69
2021/07/08 14:05:51;;;;;;;5.15;3.10;;;;;;;;;;5092681;28;20028;-69
2021/07/08 14:08:18;;;;;;;5.82;2.85;;;;;;;;;;5092197;28;20472;-69
2021/07/08 14:10:45;;;;;;;4.38;2.60;;;;;;;;;;5092655;28;20024;-69
2021/07/08 14:13:12;;;;;;;5.50;2.53;;;;;;;;;;5091211;28;20058;-68
2021/07/08 14:15:38;;;;;;;5.53;2.53;;;;;;;;;;5092176;28;20031;-67
2021/07/08 14:18:05;;;;;;;7.13;3.03;;;;;;;;;;5092385;28;20020;-68
2021/07/08 14:20:32;;;;;;;3.58;2.25;;;;;;;;;;5093791;28;20028;-67
2021/07/08 14:22:58;;;;;;;6.00;3.90;;;;;;;;;;5096563;28;20415;-67
2021/07/08 14:25:24;;;;;;;5.50;2.95;;;;;;;;;;5096454;28;20095;-69
2021/07/08 14:27:51;;;;;;;4.32;2.35;;;;;;;;;;5096409;28;20484;-69
2021/07/08 14:30:19;;;;;;;4.97;2.95;;;;;;;;;;5096108;28;20020;-69
2021/07/08 14:32:45;;;;;;;5.85;2.70;;;;;;;;;;5095002;28;20028;-67
2021/07/08 14:35:11;;;;;;;4.15;2.72;;;;;;;;;;5094719;28;20101;-67
2021/07/08 14:37:37;;;;;;;5.20;2.95;;;;;;;;;;5094848;28;20024;-67
2021/07/08 14:40:04;;;;;;;4.63;2.80;;;;;;;;;;5096315;28;20515;-67
2021/07/08 14:42:41;;;;;;;2.78;2.22;;;;;;;;;;5095836;28;20020;-67
2021/07/08 14:45:11;;;;;;;3.60;2.95;;;;;;;;;;5096067;28;20024;-67
2021/07/08 14:47:37;;;;;;;5.65;2.65;;;;;;;;;;5096033;28;20013;-68
2021/07/08 14:50:04;;;;;;;4.13;3.10;;;;;;;;;;5095669;28;20369;-68
2021/07/08 14:52:34;;;;;;;4.80;2.80;;;;;;;;;;5096044;28;20060;-68
2021/07/08 14:55:00;;;;;;;4.95;3.08;;;;;;;;;;5095891;28;20146;-68
2021/07/08 14:57:26;;;;;;;3.17;2.47;;;;;;;;;;5095146;28;20027;-68
2021/07/08 14:59:53;;;;;;;4.05;2.70;;;;;;;;;;5095825;28;20097;-67
2021/07/08 15:02:19;;;;;;;4.50;2.90;;;;;;;;;;5094467;28;20455;-68
2021/07/08 15:04:46;;;;;;;3.83;2.47;;;;;;;;;;5095450;28;20024;-69
2021/07/08 15:07:12;;;;;;;5.40;2.90;;;;;;;;;;5095661;28;20044;-68
2021/07/08 15:09:38;;;;;;;4.60;2.67;;;;;;;;;;5095519;28;20028;-67
2021/07/08 15:12:04;;;;;;;3.58;2.63;;;;;;;;;;5095189;28;20021;-68
2021/07/08 15:14:32;;;;;;;3.95;2.97;;;;;;;;;;5095512;28;20028;-69
2021/07/08 15:16:58;;;;;;;4.53;2.63;;;;;;;;;;5095496;28;20107;-69
2021/07/08 15:19:24;;;;;;;3.75;2.50;;;;;;;;;;5093851;28;20032;-69
2021/07/08 15:21:50;;;;;;;8.13;3.00;;;;;;;;;;5095488;28;20472;-69
2021/07/08 15:24:17;;;;;;;4.85;2.72;;;;;;;;;;5094112;28;20028;-69